sensor_id;sensor_type;location;lat;lon;timestamp;P1;durP1;ratioP1;P2;durP2;ratioP2
70825;SDS011;58446;41.490;22.098;2022-10-19T00:00:23;24.97;;;16.03;;
70825;SDS011;58446;41.490;22.098;2022-10-19T00:02:49;25.25;;;15.30;;
70825;SDS011;58446;41.490;22.098;2022-10-19T00:05:15;24.87;;;16.70;;
70825;SDS011;58446;41.490;22.098;2022-10-19T00:07:41;25.75;;;16.02;;
70825;SDS011;58446;41.490;22.098;2022-10-19T00:10:07;22.48;;;14.88;;
70825;SDS011;58446;41.490;22.098;2022-10-19T00:12:33;23.83;;;14.73;;
70825;SDS011;58446;41.490;22.098;2022-10-19T00:14:58;20.63;;;13.95;;
70825;SDS011;58446;41.490;22.098;2022-10-19T00:17:24;20.55;;;13.32;;
70825;SDS011;58446;41.490;22.098;2022-10-19T00:19:50;22.07;;;11.83;;
70825;SDS011;58446;41.490;22.098;2022-10-19T00:22:16;19.75;;;12.77;;
70825;SDS011;58446;41.490;22.098;2022-10-19T00:24:41;21.07;;;12.37;;
70825;SDS011;58446;41.490;22.098;2022-10-19T00:27:08;19.33;;;11.43;;
70825;SDS011;58446;41.490;22.098;2022-10-19T00:29:33;18.65;;;11.43;;
70825;SDS011;58446;41.490;22.098;2022-10-19T00:31:59;15.73;;;10.37;;
70825;SDS011;58446;41.490;22.098;2022-10-19T00:34:25;17.52;;;10.77;;
70825;SDS011;58446;41.490;22.098;2022-10-19T00:36:50;17.90;;;10.87;;
70825;SDS011;58446;41.490;22.098;2022-10-19T00:39:17;14.95;;;11.20;;
70825;SDS011;58446;41.490;22.098;2022-10-19T00:41:43;15.80;;;10.93;;
70825;SDS011;58446;41.490;22.098;2022-10-19T00:57:38;16.83;;;12.23;;
70825;SDS011;58446;41.490;22.098;2022-10-19T01:00:05;18.83;;;12.15;;
70825;SDS011;58446;41.490;22.098;2022-10-19T01:02:32;21.00;;;13.52;;
70825;SDS011;58446;41.490;22.098;2022-10-19T01:04:58;18.30;;;11.45;;
70825;SDS011;58446;41.490;22.098;2022-10-19T01:07:25;16.45;;;11.45;;
70825;SDS011;58446;41.490;22.098;2022-10-19T01:09:52;17.23;;;10.50;;
70825;SDS011;58446;41.490;22.098;2022-10-19T01:12:35;14.27;;;9.77;;
70825;SDS011;58446;41.490;22.098;2022-10-19T01:18:03;19.88;;;12.52;;
70825;SDS011;58446;41.490;22.098;2022-10-19T01:26:12;18.58;;;11.65;;
70825;SDS011;58446;41.490;22.098;2022-10-19T01:31:38;14.75;;;10.02;;
70825;SDS011;58446;41.490;22.098;2022-10-19T01:34:12;16.60;;;11.15;;
70825;SDS011;58446;41.490;22.098;2022-10-19T01:45:03;15.10;;;9.50;;
70825;SDS011;58446;41.490;22.098;2022-10-19T01:47:41;15.27;;;10.50;;
70825;SDS011;58446;41.490;22.098;2022-10-19T01:53:12;21.00;;;11.02;;
70825;SDS011;58446;41.490;22.098;2022-10-19T01:55:41;17.52;;;10.65;;
70825;SDS011;58446;41.490;22.098;2022-10-19T01:58:09;16.52;;;11.23;;
70825;SDS011;58446;41.490;22.098;2022-10-19T02:00:40;14.30;;;9.57;;
70825;SDS011;58446;41.490;22.098;2022-10-19T02:03:08;15.57;;;10.07;;
70825;SDS011;58446;41.490;22.098;2022-10-19T02:05:34;19.10;;;12.38;;
70825;SDS011;58446;41.490;22.098;2022-10-19T02:08:02;20.05;;;11.98;;
70825;SDS011;58446;41.490;22.098;2022-10-19T02:10:36;25.17;;;17.08;;
70825;SDS011;58446;41.490;22.098;2022-10-19T02:13:02;23.83;;;15.95;;
70825;SDS011;58446;41.490;22.098;2022-10-19T02:15:29;20.17;;;13.20;;
70825;SDS011;58446;41.490;22.098;2022-10-19T02:17:58;24.40;;;13.35;;
70825;SDS011;58446;41.490;22.098;2022-10-19T02:20:26;21.85;;;13.80;;
70825;SDS011;58446;41.490;22.098;2022-10-19T02:22:52;18.42;;;12.10;;
70825;SDS011;58446;41.490;22.098;2022-10-19T02:25:18;18.38;;;12.60;;
70825;SDS011;58446;41.490;22.098;2022-10-19T02:27:44;16.73;;;11.37;;
70825;SDS011;58446;41.490;22.098;2022-10-19T02:30:11;16.65;;;11.15;;
70825;SDS011;58446;41.490;22.098;2022-10-19T02:32:39;15.90;;;10.60;;
70825;SDS011;58446;41.490;22.098;2022-10-19T02:35:06;15.43;;;10.37;;
70825;SDS011;58446;41.490;22.098;2022-10-19T02:37:33;14.95;;;9.57;;
70825;SDS011;58446;41.490;22.098;2022-10-19T02:39:58;14.93;;;9.75;;
70825;SDS011;58446;41.490;22.098;2022-10-19T02:42:31;16.38;;;10.07;;
70825;SDS011;58446;41.490;22.098;2022-10-19T02:45:01;14.03;;;9.23;;
70825;SDS011;58446;41.490;22.098;2022-10-19T02:47:34;13.63;;;9.00;;
70825;SDS011;58446;41.490;22.098;2022-10-19T02:50:03;14.93;;;9.52;;
70825;SDS011;58446;41.490;22.098;2022-10-19T02:52:31;14.73;;;9.52;;
70825;SDS011;58446;41.490;22.098;2022-10-19T02:54:56;13.07;;;8.93;;
70825;SDS011;58446;41.490;22.098;2022-10-19T02:57:23;12.65;;;8.82;;
70825;SDS011;58446;41.490;22.098;2022-10-19T02:59:50;13.40;;;8.77;;
70825;SDS011;58446;41.490;22.098;2022-10-19T03:02:16;13.25;;;9.05;;
70825;SDS011;58446;41.490;22.098;2022-10-19T03:04:44;13.82;;;8.88;;
70825;SDS011;58446;41.490;22.098;2022-10-19T03:07:11;13.13;;;8.82;;
70825;SDS011;58446;41.490;22.098;2022-10-19T03:09:39;13.35;;;8.65;;
70825;SDS011;58446;41.490;22.098;2022-10-19T03:12:06;13.43;;;8.73;;
70825;SDS011;58446;41.490;22.098;2022-10-19T03:14:31;14.13;;;8.93;;
70825;SDS011;58446;41.490;22.098;2022-10-19T03:16:57;14.95;;;9.32;;
70825;SDS011;58446;41.490;22.098;2022-10-19T03:19:23;15.27;;;9.90;;
70825;SDS011;58446;41.490;22.098;2022-10-19T03:21:49;13.68;;;9.57;;
70825;SDS011;58446;41.490;22.098;2022-10-19T03:24:15;16.27;;;9.07;;
70825;SDS011;58446;41.490;22.098;2022-10-19T03:26:41;13.27;;;8.93;;
70825;SDS011;58446;41.490;22.098;2022-10-19T03:29:06;12.90;;;8.77;;
70825;SDS011;58446;41.490;22.098;2022-10-19T03:31:32;14.57;;;9.20;;
70825;SDS011;58446;41.490;22.098;2022-10-19T03:33:58;13.85;;;9.35;;
70825;SDS011;58446;41.490;22.098;2022-10-19T03:36:25;14.97;;;11.17;;
70825;SDS011;58446;41.490;22.098;2022-10-19T03:38:53;18.85;;;11.95;;
70825;SDS011;58446;41.490;22.098;2022-10-19T03:41:20;19.83;;;12.75;;
70825;SDS011;58446;41.490;22.098;2022-10-19T03:43:47;17.77;;;12.23;;
70825;SDS011;58446;41.490;22.098;2022-10-19T03:46:13;16.73;;;10.50;;
70825;SDS011;58446;41.490;22.098;2022-10-19T03:48:39;17.42;;;11.30;;
70825;SDS011;58446;41.490;22.098;2022-10-19T03:51:06;19.02;;;11.48;;
70825;SDS011;58446;41.490;22.098;2022-10-19T03:53:33;16.17;;;10.53;;
70825;SDS011;58446;41.490;22.098;2022-10-19T03:56:12;18.55;;;11.30;;
70825;SDS011;58446;41.490;22.098;2022-10-19T03:58:40;15.68;;;11.55;;
70825;SDS011;58446;41.490;22.098;2022-10-19T04:01:09;17.48;;;12.18;;
70825;SDS011;58446;41.490;22.098;2022-10-19T04:03:36;19.33;;;13.38;;
70825;SDS011;58446;41.490;22.098;2022-10-19T04:06:03;20.80;;;12.47;;
70825;SDS011;58446;41.490;22.098;2022-10-19T04:08:31;20.83;;;12.98;;
70825;SDS011;58446;41.490;22.098;2022-10-19T04:11:02;18.35;;;12.15;;
70825;SDS011;58446;41.490;22.098;2022-10-19T04:13:30;18.42;;;12.38;;
70825;SDS011;58446;41.490;22.098;2022-10-19T04:15:57;25.60;;;17.17;;
70825;SDS011;58446;41.490;22.098;2022-10-19T04:18:22;26.73;;;17.23;;
70825;SDS011;58446;41.490;22.098;2022-10-19T04:20:54;24.75;;;15.88;;
70825;SDS011;58446;41.490;22.098;2022-10-19T04:23:20;24.42;;;16.50;;
70825;SDS011;58446;41.490;22.098;2022-10-19T04:25:46;26.77;;;16.03;;
70825;SDS011;58446;41.490;22.098;2022-10-19T04:28:12;24.63;;;15.33;;
70825;SDS011;58446;41.490;22.098;2022-10-19T04:30:37;24.00;;;15.45;;
70825;SDS011;58446;41.490;22.098;2022-10-19T04:33:03;28.53;;;15.97;;
70825;SDS011;58446;41.490;22.098;2022-10-19T04:35:28;23.70;;;14.73;;
70825;SDS011;58446;41.490;22.098;2022-10-19T04:37:54;22.87;;;14.53;;
70825;SDS011;58446;41.490;22.098;2022-10-19T04:40:20;21.77;;;13.43;;
70825;SDS011;58446;41.490;22.098;2022-10-19T04:42:45;20.40;;;12.50;;
70825;SDS011;58446;41.490;22.098;2022-10-19T04:45:11;19.40;;;12.75;;
70825;SDS011;58446;41.490;22.098;2022-10-19T04:47:37;18.53;;;12.00;;
70825;SDS011;58446;41.490;22.098;2022-10-19T04:50:02;16.43;;;11.53;;
70825;SDS011;58446;41.490;22.098;2022-10-19T04:52:28;18.55;;;11.35;;
70825;SDS011;58446;41.490;22.098;2022-10-19T04:54:55;18.05;;;10.20;;
70825;SDS011;58446;41.490;22.098;2022-10-19T04:57:20;18.27;;;12.23;;
70825;SDS011;58446;41.490;22.098;2022-10-19T04:59:46;17.45;;;11.40;;
70825;SDS011;58446;41.490;22.098;2022-10-19T05:02:12;19.80;;;11.80;;
70825;SDS011;58446;41.490;22.098;2022-10-19T05:04:37;16.98;;;11.85;;
70825;SDS011;58446;41.490;22.098;2022-10-19T05:07:03;17.53;;;11.43;;
70825;SDS011;58446;41.490;22.098;2022-10-19T05:09:29;19.02;;;12.65;;
70825;SDS011;58446;41.490;22.098;2022-10-19T05:11:54;16.87;;;11.57;;
70825;SDS011;58446;41.490;22.098;2022-10-19T05:14:20;16.83;;;11.98;;
70825;SDS011;58446;41.490;22.098;2022-10-19T05:16:45;22.77;;;14.70;;
70825;SDS011;58446;41.490;22.098;2022-10-19T05:19:12;21.20;;;14.93;;
70825;SDS011;58446;41.490;22.098;2022-10-19T05:21:38;23.87;;;15.93;;
70825;SDS011;58446;41.490;22.098;2022-10-19T05:24:04;19.58;;;13.38;;
70825;SDS011;58446;41.490;22.098;2022-10-19T05:26:29;18.77;;;14.47;;
70825;SDS011;58446;41.490;22.098;2022-10-19T05:28:56;26.05;;;15.05;;
70825;SDS011;58446;41.490;22.098;2022-10-19T05:31:26;19.63;;;13.15;;
70825;SDS011;58446;41.490;22.098;2022-10-19T05:33:53;18.98;;;12.20;;
70825;SDS011;58446;41.490;22.098;2022-10-19T05:36:29;23.13;;;13.27;;
70825;SDS011;58446;41.490;22.098;2022-10-19T05:38:59;18.90;;;13.95;;
70825;SDS011;58446;41.490;22.098;2022-10-19T05:41:28;21.58;;;14.60;;
70825;SDS011;58446;41.490;22.098;2022-10-19T05:43:55;22.03;;;14.87;;
70825;SDS011;58446;41.490;22.098;2022-10-19T05:46:22;20.73;;;13.00;;
70825;SDS011;58446;41.490;22.098;2022-10-19T05:48:48;18.98;;;12.75;;
70825;SDS011;58446;41.490;22.098;2022-10-19T05:51:15;17.53;;;13.13;;
70825;SDS011;58446;41.490;22.098;2022-10-19T05:53:42;20.73;;;14.50;;
70825;SDS011;58446;41.490;22.098;2022-10-19T05:56:10;21.65;;;14.10;;
70825;SDS011;58446;41.490;22.098;2022-10-19T05:58:38;30.42;;;18.58;;
70825;SDS011;58446;41.490;22.098;2022-10-19T06:01:04;23.80;;;15.50;;
70825;SDS011;58446;41.490;22.098;2022-10-19T06:03:30;19.23;;;14.03;;
70825;SDS011;58446;41.490;22.098;2022-10-19T06:05:56;21.48;;;15.05;;
70825;SDS011;58446;41.490;22.098;2022-10-19T06:08:22;23.38;;;17.50;;
70825;SDS011;58446;41.490;22.098;2022-10-19T06:10:49;27.10;;;20.58;;
70825;SDS011;58446;41.490;22.098;2022-10-19T06:13:16;24.33;;;18.30;;
70825;SDS011;58446;41.490;22.098;2022-10-19T06:15:42;23.30;;;17.98;;
70825;SDS011;58446;41.490;22.098;2022-10-19T06:18:09;26.70;;;18.35;;
70825;SDS011;58446;41.490;22.098;2022-10-19T06:20:37;27.30;;;20.02;;
70825;SDS011;58446;41.490;22.098;2022-10-19T06:23:04;26.90;;;20.83;;
70825;SDS011;58446;41.490;22.098;2022-10-19T06:25:31;57.33;;;33.83;;
70825;SDS011;58446;41.490;22.098;2022-10-19T06:27:58;52.63;;;33.83;;
70825;SDS011;58446;41.490;22.098;2022-10-19T06:30:24;45.40;;;31.13;;
70825;SDS011;58446;41.490;22.098;2022-10-19T06:32:50;24.40;;;16.00;;
70825;SDS011;58446;41.490;22.098;2022-10-19T06:35:16;18.70;;;13.05;;
70825;SDS011;58446;41.490;22.098;2022-10-19T06:37:42;16.60;;;13.47;;
70825;SDS011;58446;41.490;22.098;2022-10-19T06:40:09;18.80;;;12.55;;
70825;SDS011;58446;41.490;22.098;2022-10-19T06:42:35;15.07;;;10.93;;
70825;SDS011;58446;41.490;22.098;2022-10-19T06:45:07;16.73;;;10.52;;
70825;SDS011;58446;41.490;22.098;2022-10-19T06:47:44;13.57;;;9.77;;
70825;SDS011;58446;41.490;22.098;2022-10-19T06:50:10;15.50;;;9.52;;
70825;SDS011;58446;41.490;22.098;2022-10-19T06:52:36;14.02;;;9.43;;
70825;SDS011;58446;41.490;22.098;2022-10-19T06:55:03;16.08;;;10.45;;
70825;SDS011;58446;41.490;22.098;2022-10-19T06:57:29;14.00;;;9.90;;
70825;SDS011;58446;41.490;22.098;2022-10-19T06:59:55;14.90;;;9.53;;
70825;SDS011;58446;41.490;22.098;2022-10-19T07:02:21;17.27;;;11.23;;
70825;SDS011;58446;41.490;22.098;2022-10-19T07:04:47;18.30;;;10.37;;
70825;SDS011;58446;41.490;22.098;2022-10-19T07:07:12;18.80;;;12.23;;
70825;SDS011;58446;41.490;22.098;2022-10-19T07:09:38;17.13;;;11.73;;
70825;SDS011;58446;41.490;22.098;2022-10-19T07:12:04;14.88;;;10.93;;
70825;SDS011;58446;41.490;22.098;2022-10-19T07:14:29;18.93;;;13.20;;
70825;SDS011;58446;41.490;22.098;2022-10-19T07:16:55;29.58;;;17.45;;
70825;SDS011;58446;41.490;22.098;2022-10-19T07:19:24;21.85;;;14.50;;
70825;SDS011;58446;41.490;22.098;2022-10-19T07:21:51;19.83;;;13.57;;
70825;SDS011;58446;41.490;22.098;2022-10-19T07:24:17;22.03;;;14.43;;
70825;SDS011;58446;41.490;22.098;2022-10-19T07:26:43;23.60;;;15.70;;
70825;SDS011;58446;41.490;22.098;2022-10-19T07:29:08;25.23;;;16.38;;
70825;SDS011;58446;41.490;22.098;2022-10-19T07:31:34;33.30;;;22.37;;
70825;SDS011;58446;41.490;22.098;2022-10-19T07:34:01;23.55;;;16.60;;
70825;SDS011;58446;41.490;22.098;2022-10-19T07:36:28;19.80;;;13.70;;
70825;SDS011;58446;41.490;22.098;2022-10-19T07:38:55;27.30;;;16.33;;
70825;SDS011;58446;41.490;22.098;2022-10-19T07:41:22;21.25;;;13.88;;
70825;SDS011;58446;41.490;22.098;2022-10-19T07:43:49;22.25;;;13.23;;
70825;SDS011;58446;41.490;22.098;2022-10-19T07:46:17;15.60;;;10.33;;
70825;SDS011;58446;41.490;22.098;2022-10-19T07:48:44;14.57;;;10.05;;
70825;SDS011;58446;41.490;22.098;2022-10-19T07:51:11;12.98;;;8.20;;
70825;SDS011;58446;41.490;22.098;2022-10-19T07:53:37;29.10;;;15.30;;
70825;SDS011;58446;41.490;22.098;2022-10-19T07:56:04;21.42;;;11.00;;
70825;SDS011;58446;41.490;22.098;2022-10-19T07:58:37;13.37;;;8.20;;
70825;SDS011;58446;41.490;22.098;2022-10-19T08:01:05;13.70;;;8.10;;
70825;SDS011;58446;41.490;22.098;2022-10-19T08:03:33;11.88;;;8.20;;
70825;SDS011;58446;41.490;22.098;2022-10-19T08:06:03;12.15;;;7.82;;
70825;SDS011;58446;41.490;22.098;2022-10-19T08:08:30;14.68;;;8.07;;
70825;SDS011;58446;41.490;22.098;2022-10-19T08:10:56;14.03;;;7.70;;
70825;SDS011;58446;41.490;22.098;2022-10-19T08:13:23;12.50;;;8.30;;
70825;SDS011;58446;41.490;22.098;2022-10-19T08:15:48;14.52;;;8.23;;
70825;SDS011;58446;41.490;22.098;2022-10-19T08:18:14;22.53;;;13.93;;
70825;SDS011;58446;41.490;22.098;2022-10-19T08:20:41;20.55;;;13.30;;
70825;SDS011;58446;41.490;22.098;2022-10-19T08:23:08;14.85;;;8.32;;
70825;SDS011;58446;41.490;22.098;2022-10-19T08:25:34;13.35;;;8.20;;
70825;SDS011;58446;41.490;22.098;2022-10-19T08:28:01;13.48;;;8.60;;
70825;SDS011;58446;41.490;22.098;2022-10-19T08:30:27;14.53;;;8.43;;
70825;SDS011;58446;41.490;22.098;2022-10-19T08:32:52;18.25;;;12.10;;
70825;SDS011;58446;41.490;22.098;2022-10-19T08:35:18;23.63;;;15.63;;
70825;SDS011;58446;41.490;22.098;2022-10-19T08:37:44;15.40;;;10.52;;
70825;SDS011;58446;41.490;22.098;2022-10-19T08:40:20;13.70;;;7.90;;
70825;SDS011;58446;41.490;22.098;2022-10-19T08:42:51;11.48;;;7.70;;
70825;SDS011;58446;41.490;22.098;2022-10-19T08:48:09;11.60;;;7.82;;
70825;SDS011;58446;41.490;22.098;2022-10-19T08:50:39;10.50;;;7.40;;
70825;SDS011;58446;41.490;22.098;2022-10-19T08:58:27;10.45;;;7.05;;
70825;SDS011;58446;41.490;22.098;2022-10-19T09:03:47;12.87;;;7.93;;
70825;SDS011;58446;41.490;22.098;2022-10-19T09:09:09;11.63;;;7.60;;
70825;SDS011;58446;41.490;22.098;2022-10-19T09:11:37;10.30;;;6.43;;
70825;SDS011;58446;41.490;22.098;2022-10-19T09:17:04;11.90;;;6.13;;
70825;SDS011;58446;41.490;22.098;2022-10-19T09:19:36;10.93;;;7.28;;
70825;SDS011;58446;41.490;22.098;2022-10-19T09:27:39;12.07;;;6.60;;
70825;SDS011;58446;41.490;22.098;2022-10-19T09:30:17;11.25;;;6.32;;
70825;SDS011;58446;41.490;22.098;2022-10-19T09:32:46;10.55;;;6.63;;
70825;SDS011;58446;41.490;22.098;2022-10-19T09:35:25;13.60;;;7.00;;
70825;SDS011;58446;41.490;22.098;2022-10-19T09:38:05;12.38;;;5.93;;
70825;SDS011;58446;41.490;22.098;2022-10-19T09:40:32;11.57;;;6.43;;
70825;SDS011;58446;41.490;22.098;2022-10-19T09:42:59;13.52;;;6.38;;
70825;SDS011;58446;41.490;22.098;2022-10-19T09:45:36;10.32;;;6.35;;
70825;SDS011;58446;41.490;22.098;2022-10-19T09:48:27;10.73;;;6.45;;
70825;SDS011;58446;41.490;22.098;2022-10-19T09:50:57;11.05;;;6.70;;
70825;SDS011;58446;41.490;22.098;2022-10-19T09:53:25;12.00;;;6.43;;
70825;SDS011;58446;41.490;22.098;2022-10-19T09:56:37;10.65;;;6.38;;
70825;SDS011;58446;41.490;22.098;2022-10-19T09:58:51;9.50;;;6.15;;
70825;SDS011;58446;41.490;22.098;2022-10-19T10:04:08;10.30;;;5.72;;
70825;SDS011;58446;41.490;22.098;2022-10-19T10:06:38;10.07;;;6.13;;
70825;SDS011;58446;41.490;22.098;2022-10-19T10:09:05;9.52;;;6.13;;
70825;SDS011;58446;41.490;22.098;2022-10-19T10:11:32;11.10;;;6.88;;
70825;SDS011;58446;41.490;22.098;2022-10-19T10:16:55;12.73;;;8.00;;
70825;SDS011;58446;41.490;22.098;2022-10-19T10:19:27;13.33;;;7.23;;
70825;SDS011;58446;41.490;22.098;2022-10-19T10:21:54;13.30;;;7.00;;
70825;SDS011;58446;41.490;22.098;2022-10-19T10:24:23;14.68;;;7.97;;
70825;SDS011;58446;41.490;22.098;2022-10-19T10:26:56;13.30;;;7.55;;
70825;SDS011;58446;41.490;22.098;2022-10-19T10:29:25;12.00;;;7.80;;
70825;SDS011;58446;41.490;22.098;2022-10-19T10:31:54;13.07;;;8.37;;
70825;SDS011;58446;41.490;22.098;2022-10-19T10:34:33;13.55;;;7.93;;
70825;SDS011;58446;41.490;22.098;2022-10-19T10:37:02;12.38;;;8.65;;
70825;SDS011;58446;41.490;22.098;2022-10-19T10:39:31;12.60;;;7.38;;
70825;SDS011;58446;41.490;22.098;2022-10-19T10:41:59;11.55;;;7.05;;
70825;SDS011;58446;41.490;22.098;2022-10-19T10:44:29;11.37;;;6.53;;
70825;SDS011;58446;41.490;22.098;2022-10-19T10:46:59;10.40;;;6.82;;
70825;SDS011;58446;41.490;22.098;2022-10-19T10:49:36;10.80;;;7.28;;
70825;SDS011;58446;41.490;22.098;2022-10-19T10:52:08;12.20;;;7.03;;
70825;SDS011;58446;41.490;22.098;2022-10-19T10:54:36;10.40;;;7.10;;
70825;SDS011;58446;41.490;22.098;2022-10-19T11:02:40;11.15;;;7.78;;
70825;SDS011;58446;41.490;22.098;2022-10-19T11:05:12;11.68;;;7.63;;
70825;SDS011;58446;41.490;22.098;2022-10-19T11:07:44;12.23;;;7.77;;
70825;SDS011;58446;41.490;22.098;2022-10-19T11:12:43;14.60;;;9.32;;
70825;SDS011;58446;41.490;22.098;2022-10-19T11:15:21;13.75;;;8.48;;
70825;SDS011;58446;41.490;22.098;2022-10-19T11:20:41;11.70;;;7.20;;
70825;SDS011;58446;41.490;22.098;2022-10-19T11:23:22;13.32;;;7.35;;
70825;SDS011;58446;41.490;22.098;2022-10-19T11:26:11;12.52;;;8.07;;
70825;SDS011;58446;41.490;22.098;2022-10-19T11:29:17;14.23;;;6.65;;
70825;SDS011;58446;41.490;22.098;2022-10-19T11:32:02;11.65;;;7.53;;
70825;SDS011;58446;41.490;22.098;2022-10-19T11:39:57;14.18;;;8.63;;
70825;SDS011;58446;41.490;22.098;2022-10-19T11:42:44;10.75;;;7.13;;
70825;SDS011;58446;41.490;22.098;2022-10-19T11:45:34;11.25;;;7.63;;
70825;SDS011;58446;41.490;22.098;2022-10-19T11:48:43;14.47;;;7.93;;
70825;SDS011;58446;41.490;22.098;2022-10-19T11:51:20;12.35;;;7.32;;
70825;SDS011;58446;41.490;22.098;2022-10-19T11:54:12;12.30;;;7.40;;
70825;SDS011;58446;41.490;22.098;2022-10-19T11:56:50;10.93;;;6.90;;
70825;SDS011;58446;41.490;22.098;2022-10-19T12:02:17;11.73;;;6.67;;
70825;SDS011;58446;41.490;22.098;2022-10-19T12:04:55;13.55;;;7.03;;
70825;SDS011;58446;41.490;22.098;2022-10-19T12:10:19;11.93;;;7.78;;
70825;SDS011;58446;41.490;22.098;2022-10-19T12:13:08;11.25;;;7.30;;
70825;SDS011;58446;41.490;22.098;2022-10-19T12:20:47;10.93;;;7.00;;
70825;SDS011;58446;41.490;22.098;2022-10-19T12:23:29;11.25;;;6.28;;
70825;SDS011;58446;41.490;22.098;2022-10-19T12:25:59;11.18;;;5.97;;
70825;SDS011;58446;41.490;22.098;2022-10-19T12:28:29;12.23;;;6.37;;
70825;SDS011;58446;41.490;22.098;2022-10-19T12:30:58;11.75;;;6.70;;
70825;SDS011;58446;41.490;22.098;2022-10-19T12:36:14;13.00;;;7.15;;
70825;SDS011;58446;41.490;22.098;2022-10-19T12:47:09;14.20;;;7.88;;
70825;SDS011;58446;41.490;22.098;2022-10-19T12:53:00;12.43;;;7.38;;
70825;SDS011;58446;41.490;22.098;2022-10-19T13:00:55;12.35;;;6.32;;
70825;SDS011;58446;41.490;22.098;2022-10-19T13:03:23;11.73;;;6.50;;
70825;SDS011;58446;41.490;22.098;2022-10-19T13:05:57;14.93;;;7.22;;
70825;SDS011;58446;41.490;22.098;2022-10-19T13:08:26;13.63;;;7.03;;
70825;SDS011;58446;41.490;22.098;2022-10-19T13:11:07;11.88;;;7.18;;
70825;SDS011;58446;41.490;22.098;2022-10-19T13:21:45;12.53;;;7.10;;
70825;SDS011;58446;41.490;22.098;2022-10-19T13:24:19;12.82;;;6.38;;
70825;SDS011;58446;41.490;22.098;2022-10-19T13:29:26;15.68;;;9.23;;
70825;SDS011;58446;41.490;22.098;2022-10-19T13:43:23;24.00;;;13.57;;
70825;SDS011;58446;41.490;22.098;2022-10-19T13:45:55;17.23;;;9.18;;
70825;SDS011;58446;41.490;22.098;2022-10-19T13:48:30;40.07;;;20.73;;
70825;SDS011;58446;41.490;22.098;2022-10-19T13:51:26;24.20;;;11.43;;
70825;SDS011;58446;41.490;22.098;2022-10-19T13:57:17;50.50;;;30.52;;
70825;SDS011;58446;41.490;22.098;2022-10-19T14:00:04;91.93;;;80.13;;
70825;SDS011;58446;41.490;22.098;2022-10-19T14:11:04;28.67;;;20.13;;
70825;SDS011;58446;41.490;22.098;2022-10-19T14:13:43;33.75;;;29.90;;
70825;SDS011;58446;41.490;22.098;2022-10-19T14:16:18;12.03;;;9.17;;
70825;SDS011;58446;41.490;22.098;2022-10-19T14:18:52;11.82;;;9.05;;
70825;SDS011;58446;41.490;22.098;2022-10-19T14:21:29;11.38;;;8.40;;
70825;SDS011;58446;41.490;22.098;2022-10-19T14:24:01;10.73;;;6.50;;
70825;SDS011;58446;41.490;22.098;2022-10-19T14:26:27;10.40;;;7.15;;
70825;SDS011;58446;41.490;22.098;2022-10-19T14:28:55;11.00;;;7.03;;
70825;SDS011;58446;41.490;22.098;2022-10-19T14:31:56;25.40;;;22.70;;
70825;SDS011;58446;41.490;22.098;2022-10-19T14:34:16;10.18;;;6.00;;
70825;SDS011;58446;41.490;22.098;2022-10-19T14:36:45;11.67;;;6.60;;
70825;SDS011;58446;41.490;22.098;2022-10-19T14:39:28;9.68;;;6.72;;
70825;SDS011;58446;41.490;22.098;2022-10-19T14:42:04;10.80;;;6.63;;
70825;SDS011;58446;41.490;22.098;2022-10-19T14:47:06;9.95;;;6.35;;
70825;SDS011;58446;41.490;22.098;2022-10-19T14:49:41;10.60;;;6.73;;
70825;SDS011;58446;41.490;22.098;2022-10-19T14:52:07;10.23;;;6.97;;
70825;SDS011;58446;41.490;22.098;2022-10-19T14:54:40;12.52;;;6.15;;
70825;SDS011;58446;41.490;22.098;2022-10-19T14:57:11;12.32;;;6.18;;
70825;SDS011;58446;41.490;22.098;2022-10-19T14:59:49;11.77;;;6.23;;
70825;SDS011;58446;41.490;22.098;2022-10-19T15:02:20;13.50;;;6.75;;
70825;SDS011;58446;41.490;22.098;2022-10-19T15:04:51;11.80;;;7.45;;
70825;SDS011;58446;41.490;22.098;2022-10-19T15:07:22;11.82;;;6.97;;
70825;SDS011;58446;41.490;22.098;2022-10-19T15:09:55;12.88;;;7.70;;
70825;SDS011;58446;41.490;22.098;2022-10-19T15:12:27;11.80;;;7.10;;
70825;SDS011;58446;41.490;22.098;2022-10-19T15:14:57;12.63;;;8.25;;
70825;SDS011;58446;41.490;22.098;2022-10-19T15:17:27;18.02;;;9.20;;
70825;SDS011;58446;41.490;22.098;2022-10-19T15:19:55;15.57;;;8.52;;
70825;SDS011;58446;41.490;22.098;2022-10-19T15:25:00;13.60;;;8.85;;
70825;SDS011;58446;41.490;22.098;2022-10-19T15:27:36;15.25;;;8.68;;
70825;SDS011;58446;41.490;22.098;2022-10-19T15:30:04;12.40;;;8.85;;
70825;SDS011;58446;41.490;22.098;2022-10-19T15:32:55;20.75;;;11.80;;
70825;SDS011;58446;41.490;22.098;2022-10-19T15:35:28;18.93;;;11.20;;
70825;SDS011;58446;41.490;22.098;2022-10-19T15:38:06;23.33;;;15.05;;
70825;SDS011;58446;41.490;22.098;2022-10-19T15:40:42;39.20;;;23.85;;
70825;SDS011;58446;41.490;22.098;2022-10-19T15:46:04;32.83;;;20.60;;
70825;SDS011;58446;41.490;22.098;2022-10-19T15:51:29;93.38;;;57.85;;
70825;SDS011;58446;41.490;22.098;2022-10-19T15:56:21;115.07;;;76.22;;
70825;SDS011;58446;41.490;22.098;2022-10-19T15:58:48;107.38;;;72.93;;
70825;SDS011;58446;41.490;22.098;2022-10-19T16:01:23;118.33;;;78.27;;
70825;SDS011;58446;41.490;22.098;2022-10-19T16:03:54;120.85;;;79.93;;
70825;SDS011;58446;41.490;22.098;2022-10-19T16:06:21;102.05;;;63.85;;
70825;SDS011;58446;41.490;22.098;2022-10-19T16:08:49;99.93;;;60.83;;
70825;SDS011;58446;41.490;22.098;2022-10-19T16:11:16;100.60;;;60.85;;
70825;SDS011;58446;41.490;22.098;2022-10-19T16:13:43;127.00;;;74.73;;
70825;SDS011;58446;41.490;22.098;2022-10-19T16:16:11;136.50;;;74.13;;
70825;SDS011;58446;41.490;22.098;2022-10-19T16:18:42;90.57;;;53.22;;
70825;SDS011;58446;41.490;22.098;2022-10-19T16:21:08;122.57;;;68.70;;
70825;SDS011;58446;41.490;22.098;2022-10-19T16:23:33;109.50;;;64.22;;
70825;SDS011;58446;41.490;22.098;2022-10-19T16:26:00;105.50;;;61.42;;
70825;SDS011;58446;41.490;22.098;2022-10-19T16:28:25;100.37;;;57.67;;
70825;SDS011;58446;41.490;22.098;2022-10-19T16:30:52;109.15;;;61.80;;
70825;SDS011;58446;41.490;22.098;2022-10-19T16:33:18;152.63;;;95.32;;
70825;SDS011;58446;41.490;22.098;2022-10-19T16:35:44;104.93;;;61.60;;
70825;SDS011;58446;41.490;22.098;2022-10-19T16:38:10;180.32;;;111.22;;
70825;SDS011;58446;41.490;22.098;2022-10-19T16:40:36;197.60;;;118.30;;
70825;SDS011;58446;41.490;22.098;2022-10-19T16:43:02;176.18;;;107.47;;
70825;SDS011;58446;41.490;22.098;2022-10-19T16:45:28;158.00;;;94.23;;
70825;SDS011;58446;41.490;22.098;2022-10-19T16:47:54;128.90;;;76.25;;
70825;SDS011;58446;41.490;22.098;2022-10-19T16:50:20;133.82;;;78.38;;
70825;SDS011;58446;41.490;22.098;2022-10-19T16:52:46;112.43;;;69.60;;
70825;SDS011;58446;41.490;22.098;2022-10-19T16:55:12;93.97;;;59.40;;
70825;SDS011;58446;41.490;22.098;2022-10-19T16:57:38;103.18;;;66.82;;
70825;SDS011;58446;41.490;22.098;2022-10-19T17:00:05;80.85;;;53.47;;
70825;SDS011;58446;41.490;22.098;2022-10-19T17:02:33;68.63;;;48.60;;
70825;SDS011;58446;41.490;22.098;2022-10-19T17:04:59;84.20;;;54.40;;